Terminal Aerodrome Forecast
Issued by NWS

Home | Current Version | Previous Version | Text Only | Print | Product List | Glossary On
Versions: 1 2 3 4 5 6 7 8 9 10 11 12 13 14 15 16 17
024
FTUS41 KPBZ 251459 AAA
TAFHLG
TAF AMD
KHLG 251459Z 2515/2612 34004KT P6SM OVC025
     FM251600 32007KT P6SM VCSH OVC020
     FM252000 32011KT P6SM VCSH OVC008
     FM252300 32011KT P6SM BKN015=

USA.gov is the U.S. government's official web portal to all federal, state and local government web resources and services.